Time;durP1;ratioP1;P1;durP2;ratioP2;P2;SDS_P1;SDS_P2;PMS_P1;PMS_P2;Temp;Humidity;BMP_temperature;BMP_pressure;BME280_temperature;BME280_humidity;BME280_pressure;Samples;Min_cycle;Max_cycle;Signal;HPM_P1;HPM_P2
2023/07/30 00:01:14;;;;;;;0.40;0.40;;;21.90;63.90;;;;;;6294543;28;20027;-67
2023/07/30 00:04:15;;;;;;;0.60;0.50;;;21.90;63.90;;;;;;6294334;28;20090;-65
2023/07/30 00:07:15;;;;;;;0.50;0.50;;;22.00;64.00;;;;;;6293899;28;20016;-67
2023/07/30 00:10:17;;;;;;;1.52;0.50;;;22.00;64.10;;;;;;6293915;28;20052;-67
2023/07/30 00:13:17;;;;;;;0.73;0.65;;;22.00;64.00;;;;;;6292661;28;20039;-66
2023/07/30 00:16:18;;;;;;;0.60;0.50;;;22.00;64.00;;;;;;6294497;28;20020;-68
2023/07/30 00:19:19;;;;;;;0.52;0.50;;;22.00;64.00;;;;;;6293812;28;20038;-66
2023/07/30 00:22:20;;;;;;;0.50;0.50;;;22.00;64.00;;;;;;6293883;28;20033;-66
2023/07/30 00:25:21;;;;;;;0.73;0.45;;;22.00;64.00;;;;;;6293853;28;20059;-67
2023/07/30 00:28:21;;;;;;;0.40;0.40;;;22.00;64.00;;;;;;6291958;28;20386;-66
2023/07/30 00:31:22;;;;;;;0.47;0.47;;;22.00;64.00;;;;;;6293794;28;20028;-66
2023/07/30 00:34:22;;;;;;;0.63;0.60;;;22.00;64.00;;;;;;6293705;28;20055;-67
2023/07/30 00:37:23;;;;;;;0.60;0.60;;;22.00;64.00;;;;;;6293963;28;20029;-67
2023/07/30 00:40:24;;;;;;;0.40;0.40;;;22.00;64.10;;;;;;6293460;28;20496;-67
2023/07/30 00:43:24;;;;;;;0.47;0.40;;;22.00;64.10;;;;;;6292073;28;20021;-67
2023/07/30 00:46:25;;;;;;;0.70;0.40;;;22.00;64.00;;;;;;6293343;28;20054;-68
2023/07/30 00:49:26;;;;;;;0.47;0.47;;;22.00;64.10;;;;;;6292999;28;20384;-67
2023/07/30 00:52:28;;;;;;;0.60;0.50;;;22.00;64.00;;;;;;6293437;28;20041;-66
2023/07/30 00:55:29;;;;;;;0.50;0.50;;;22.00;64.00;;;;;;6293212;28;20036;-67
2023/07/30 00:58:30;;;;;;;0.60;0.50;;;22.00;64.10;;;;;;6292575;28;20024;-66
2023/07/30 01:01:34;;;;;;;0.93;0.55;;;21.90;63.90;;;;;;6293004;28;20039;-67
2023/07/30 01:04:37;;;;;;;0.40;0.40;;;22.00;64.10;;;;;;6293305;28;20452;-66
2023/07/30 01:07:37;;;;;;;0.55;0.50;;;22.00;64.00;;;;;;6293285;28;20504;-67
2023/07/30 01:10:40;;;;;;;0.50;0.45;;;22.00;64.00;;;;;;6291759;28;20028;-67
2023/07/30 01:13:42;;;;;;;0.50;0.50;;;22.00;64.00;;;;;;6292986;28;20013;-68
2023/07/30 01:16:43;;;;;;;0.40;0.40;;;21.90;63.90;;;;;;6268257;28;20032;-67
2023/07/30 01:19:44;;;;;;;0.30;0.30;;;22.00;64.10;;;;;;6269539;28;20103;-67
2023/07/30 01:22:44;;;;;;;0.60;0.60;;;22.00;64.10;;;;;;6293033;28;20107;-67
2023/07/30 01:25:47;;;;;;;0.40;0.40;;;22.00;64.10;;;;;;6292948;28;20013;-67
2023/07/30 01:28:52;;;;;;;0.55;0.50;;;22.00;64.10;;;;;;6293030;28;20024;-67
2023/07/30 01:31:57;;;;;;;0.40;0.40;;;22.00;64.10;;;;;;6293159;28;20021;-67
2023/07/30 01:34:59;;;;;;;1.02;0.70;;;22.00;64.10;;;;;;6292607;28;20037;-67
2023/07/30 01:38:03;;;;;;;0.40;0.40;;;22.00;64.10;;;;;;6293102;28;20117;-66
2023/07/30 01:41:04;;;;;;;0.60;0.60;;;22.00;64.10;;;;;;6295223;28;20067;-67
2023/07/30 01:44:05;;;;;;;0.50;0.50;;;22.00;64.10;;;;;;6297794;28;20282;-67
2023/07/30 01:47:06;;;;;;;0.60;0.50;;;22.00;64.10;;;;;;6296394;28;20024;-67
2023/07/30 01:50:07;;;;;;;0.70;0.70;;;22.00;64.10;;;;;;6297671;28;20111;-67
2023/07/30 01:53:07;;;;;;;0.50;0.50;;;22.00;64.10;;;;;;6297588;28;20020;-65
2023/07/30 01:56:08;;;;;;;0.50;0.45;;;22.00;64.10;;;;;;6297399;28;20027;-67
2023/07/30 01:59:09;;;;;;;0.65;0.40;;;22.00;64.10;;;;;;6298093;28;20444;-67
2023/07/30 02:02:09;;;;;;;0.75;0.55;;;22.00;64.10;;;;;;6297152;28;20496;-67
2023/07/30 02:05:10;;;;;;;1.85;0.85;;;22.00;64.10;;;;;;6297144;28;20099;-67
2023/07/30 02:08:13;;;;;;;0.90;0.60;;;22.00;64.10;;;;;;6297173;28;20024;-66
2023/07/30 02:11:14;;;;;;;1.20;0.63;;;22.00;64.10;;;;;;6297113;28;20066;-67
2023/07/30 02:14:15;;;;;;;0.80;0.60;;;22.00;64.10;;;;;;6296500;28;20021;-67
2023/07/30 02:17:17;;;;;;;0.70;0.60;;;22.00;64.10;;;;;;6296947;28;20203;-67
2023/07/30 02:20:19;;;;;;;0.77;0.55;;;22.00;64.10;;;;;;6296418;28;20037;-67
2023/07/30 02:23:21;;;;;;;0.55;0.43;;;22.00;64.10;;;;;;6297009;28;20179;-66
2023/07/30 02:26:22;;;;;;;0.50;0.50;;;22.00;64.10;;;;;;6296478;28;20070;-66
2023/07/30 02:29:22;;;;;;;0.85;0.70;;;22.00;64.10;;;;;;6296733;28;20025;-67
2023/07/30 02:32:23;;;;;;;0.70;0.70;;;22.00;64.10;;;;;;6295933;28;20607;-66
2023/07/30 02:35:24;;;;;;;0.70;0.70;;;22.00;64.10;;;;;;6294796;28;20436;-67
2023/07/30 02:38:25;;;;;;;0.65;0.60;;;22.00;64.20;;;;;;6295020;28;20024;-67
2023/07/30 02:41:25;;;;;;;0.60;0.60;;;22.00;65.00;;;;;;6295002;28;20024;-66
2023/07/30 02:44:26;;;;;;;0.55;0.52;;;22.00;64.10;;;;;;6294790;28;20109;-66
2023/07/30 02:47:27;;;;;;;0.60;0.60;;;22.00;64.10;;;;;;6294616;28;20055;-67
2023/07/30 02:50:27;;;;;;;0.60;0.57;;;22.00;64.10;;;;;;6294785;28;20023;-67
2023/07/30 02:53:28;;;;;;;0.60;0.57;;;22.00;64.20;;;;;;6294738;28;20070;-66
2023/07/30 02:56:29;;;;;;;0.80;0.60;;;22.00;64.20;;;;;;6294732;28;20513;-67
2023/07/30 02:59:30;;;;;;;0.70;0.63;;;22.00;64.20;;;;;;6293651;28;20032;-67
2023/07/30 03:02:30;;;;;;;0.63;0.50;;;22.00;64.20;;;;;;6294479;28;20653;-67
2023/07/30 03:05:31;;;;;;;0.70;0.70;;;22.00;64.20;;;;;;6294608;28;20021;-68
2023/07/30 03:08:31;;;;;;;0.50;0.50;;;22.00;64.20;;;;;;6294167;28;20499;-67
2023/07/30 03:11:32;;;;;;;0.55;0.55;;;22.00;64.20;;;;;;6294323;28;20031;-67
2023/07/30 03:14:33;;;;;;;0.57;0.57;;;22.00;64.20;;;;;;6294041;28;20024;-65
2023/07/30 03:17:33;;;;;;;0.50;0.45;;;22.00;64.20;;;;;;6294105;28;20488;-67
2023/07/30 03:20:34;;;;;;;0.63;0.52;;;22.00;64.20;;;;;;6294110;28;20016;-65
2023/07/30 03:23:35;;;;;;;0.50;0.50;;;22.00;64.20;;;;;;6294344;28;20029;-67
2023/07/30 03:26:35;;;;;;;0.60;0.60;;;22.00;64.30;;;;;;6293848;28;20024;-66
2023/07/30 03:29:36;;;;;;;0.70;0.60;;;22.00;64.30;;;;;;6294261;28;20025;-67
2023/07/30 03:32:36;;;;;;;0.60;0.60;;;21.90;64.20;;;;;;6255165;28;1123659;-66
2023/07/30 03:35:37;;;;;;;1.17;0.50;;;22.00;64.30;;;;;;6295137;28;20656;-67
2023/07/30 03:38:38;;;;;;;0.63;0.50;;;21.90;64.10;;;;;;6295060;28;20028;-68
2023/07/30 03:41:38;;;;;;;0.70;0.70;;;22.00;64.30;;;;;;6295090;28;20015;-66
2023/07/30 03:44:39;;;;;;;0.50;0.50;;;22.00;64.30;;;;;;6294541;28;20523;-66
2023/07/30 03:47:40;;;;;;;0.60;0.60;;;22.00;64.20;;;;;;6294669;28;20496;-65
2023/07/30 03:50:40;;;;;;;0.93;0.50;;;22.00;65.10;;;;;;6294877;28;20059;-67
2023/07/30 03:53:42;;;;;;;0.52;0.50;;;22.00;64.20;;;;;;6294496;28;20398;-67
2023/07/30 03:56:43;;;;;;;1.05;0.75;;;21.90;64.10;;;;;;6293216;28;20090;-67
2023/07/30 04:00:36;;;;;;;0.47;0.45;;;22.00;64.20;;;;;;6294685;28;20024;-67
2023/07/30 04:03:37;;;;;;;1.02;0.80;;;22.00;64.20;;;;;;6293832;28;20043;-67
2023/07/30 04:06:38;;;;;;;0.65;0.65;;;21.90;64.10;;;;;;6294381;28;20016;-67
2023/07/30 04:09:38;;;;;;;0.60;0.55;;;22.00;64.20;;;;;;6294356;28;20047;-66
2023/07/30 04:12:39;;;;;;;1.85;0.50;;;22.00;64.20;;;;;;6294370;28;20104;-67
2023/07/30 04:15:40;;;;;;;0.70;0.60;;;22.00;64.20;;;;;;6292683;28;20525;-66
2023/07/30 04:18:40;;;;;;;0.50;0.45;;;22.00;64.20;;;;;;6294222;28;20054;-67
2023/07/30 04:21:41;;;;;;;0.60;0.60;;;22.00;64.20;;;;;;6294018;28;20473;-67
2023/07/30 04:24:42;;;;;;;0.65;0.60;;;22.00;64.20;;;;;;6293994;28;20028;-68
2023/07/30 04:27:43;;;;;;;0.55;0.50;;;21.90;64.10;;;;;;6293797;28;20017;-67
2023/07/30 04:30:44;;;;;;;0.63;0.60;;;21.90;64.10;;;;;;6293918;28;20047;-66
2023/07/30 04:33:44;;;;;;;0.50;0.50;;;22.00;64.20;;;;;;6293609;28;20669;-67
2023/07/30 04:36:45;;;;;;;0.60;0.52;;;21.90;64.10;;;;;;6293604;28;20531;-66
2023/07/30 04:39:46;;;;;;;0.60;0.60;;;22.00;64.20;;;;;;6293604;28;20035;-67
2023/07/30 04:42:46;;;;;;;1.20;0.60;;;22.00;64.20;;;;;;6292656;28;20024;-66
2023/07/30 04:45:47;;;;;;;0.60;0.52;;;22.00;64.20;;;;;;6293146;28;20529;-64
2023/07/30 04:48:47;;;;;;;0.40;0.40;;;21.90;64.10;;;;;;6293589;28;20009;-67
2023/07/30 04:51:48;;;;;;;0.60;0.47;;;22.00;64.20;;;;;;6292339;28;20020;-67
2023/07/30 04:54:49;;;;;;;0.50;0.40;;;22.00;64.20;;;;;;6293888;28;20161;-67
2023/07/30 04:57:49;;;;;;;0.40;0.40;;;21.90;64.10;;;;;;6293385;28;20638;-66
2023/07/30 05:00:50;;;;;;;0.50;0.50;;;22.00;64.20;;;;;;6291952;28;20517;-66
2023/07/30 05:03:51;;;;;;;0.95;0.57;;;21.90;64.10;;;;;;6281686;28;20390;-67
2023/07/30 05:06:51;;;;;;;0.73;0.65;;;21.90;64.10;;;;;;6291688;28;20123;-65
2023/07/30 05:09:58;;;;;;;0.47;0.47;;;22.00;64.20;;;;;;6292390;28;20028;-67
2023/07/30 05:13:02;;;;;;;0.55;0.50;;;21.90;64.10;;;;;;6292647;28;20396;-65
2023/07/30 05:16:03;;;;;;;0.57;0.52;;;21.90;64.20;;;;;;6291189;28;20405;-64
2023/07/30 05:19:04;;;;;;;0.50;0.50;;;22.00;64.20;;;;;;6292889;28;20039;-66
2023/07/30 05:22:07;;;;;;;0.55;0.50;;;21.90;64.10;;;;;;6292286;28;20101;-65
2023/07/30 05:25:08;;;;;;;0.50;0.50;;;21.90;64.10;;;;;;6291724;28;20059;-67
2023/07/30 05:28:09;;;;;;;0.40;0.40;;;21.90;64.20;;;;;;6291414;28;20024;-66
2023/07/30 05:31:09;;;;;;;0.52;0.50;;;22.00;64.30;;;;;;6292401;28;20553;-67
2023/07/30 05:34:10;;;;;;;0.55;0.50;;;22.00;64.20;;;;;;6292621;28;20037;-67
2023/07/30 05:37:10;;;;;;;0.77;0.57;;;21.90;64.20;;;;;;6292582;28;20029;-68
2023/07/30 05:40:11;;;;;;;0.40;0.40;;;22.00;64.20;;;;;;6292699;28;20031;-66
2023/07/30 05:43:12;;;;;;;0.60;0.57;;;22.00;64.20;;;;;;6291061;28;20569;-67
2023/07/30 05:46:12;;;;;;;0.50;0.50;;;22.00;64.20;;;;;;6292057;28;20020;-66
2023/07/30 05:49:14;;;;;;;0.40;0.40;;;22.00;64.20;;;;;;6292261;28;20032;-66
2023/07/30 05:52:15;;;;;;;0.50;0.50;;;22.00;64.20;;;;;;6292400;28;20021;-66
2023/07/30 05:55:15;;;;;;;0.68;0.50;;;21.90;64.10;;;;;;6292365;28;20103;-66
2023/07/30 05:58:16;;;;;;;0.50;0.43;;;21.90;64.10;;;;;;6291158;28;20029;-67
2023/07/30 06:01:17;;;;;;;0.50;0.50;;;22.00;64.20;;;;;;6291883;28;20032;-67
2023/07/30 06:04:18;;;;;;;0.40;0.40;;;21.90;64.10;;;;;;6292426;28;20481;-67
2023/07/30 06:07:18;;;;;;;0.40;0.40;;;22.00;64.20;;;;;;6291714;28;20025;-67
2023/07/30 06:10:19;;;;;;;0.60;0.45;;;22.00;64.30;;;;;;6291995;28;20506;-66
2023/07/30 06:13:20;;;;;;;0.55;0.50;;;21.90;64.10;;;;;;6291267;28;20090;-67
2023/07/30 06:16:20;;;;;;;0.45;0.45;;;22.00;64.20;;;;;;6291705;28;20028;-66
2023/07/30 06:19:21;;;;;;;0.70;0.50;;;21.90;64.10;;;;;;6290345;28;20098;-66
2023/07/30 06:22:22;;;;;;;0.55;0.52;;;22.00;64.30;;;;;;6291749;28;20025;-67
2023/07/30 06:25:22;;;;;;;0.45;0.45;;;21.90;64.10;;;;;;6290043;28;20020;-67
2023/07/30 06:28:24;;;;;;;1.15;0.52;;;22.00;64.20;;;;;;6296048;28;20033;-67
2023/07/30 06:31:25;;;;;;;0.40;0.40;;;22.00;64.20;;;;;;6295833;28;20020;-66
2023/07/30 06:34:25;;;;;;;0.70;0.52;;;21.90;64.10;;;;;;6296083;28;20091;-66
2023/07/30 06:37:26;;;;;;;0.47;0.45;;;21.90;64.10;;;;;;6296104;28;20077;-66
2023/07/30 06:40:27;;;;;;;0.40;0.40;;;22.00;64.20;;;;;;6296237;28;20480;-66
2023/07/30 06:43:27;;;;;;;0.40;0.40;;;21.90;64.10;;;;;;6295629;28;20040;-67
2023/07/30 06:46:28;;;;;;;0.47;0.47;;;21.90;64.10;;;;;;6294653;28;20497;-65
2023/07/30 06:49:29;;;;;;;0.50;0.50;;;21.90;64.10;;;;;;6295854;28;20477;-67
2023/07/30 06:52:30;;;;;;;0.40;0.40;;;21.90;64.20;;;;;;6295779;28;20493;-67
2023/07/30 06:55:30;;;;;;;0.50;0.50;;;22.00;64.30;;;;;;6295517;28;20031;-67
2023/07/30 06:58:31;;;;;;;0.40;0.40;;;21.90;64.10;;;;;;6294695;28;20604;-67
2023/07/30 07:01:31;;;;;;;0.50;0.50;;;22.00;64.20;;;;;;6295330;28;20492;-67
2023/07/30 07:04:32;;;;;;;0.63;0.50;;;22.00;64.20;;;;;;6295643;28;20052;-67
2023/07/30 07:07:33;;;;;;;0.55;0.45;;;22.00;64.20;;;;;;6295513;28;20024;-66
2023/07/30 07:10:33;;;;;;;0.60;0.52;;;22.00;64.20;;;;;;6295456;28;20020;-66
2023/07/30 07:13:34;;;;;;;0.77;0.50;;;21.90;64.10;;;;;;6295039;28;20021;-67
2023/07/30 07:16:35;;;;;;;0.45;0.40;;;22.00;64.20;;;;;;6295349;28;20032;-66
2023/07/30 07:19:36;;;;;;;0.40;0.40;;;21.90;64.10;;;;;;6295349;28;20431;-67
2023/07/30 07:22:37;;;;;;;0.60;0.40;;;22.00;64.20;;;;;;6294972;28;20057;-65
2023/07/30 07:25:38;;;;;;;0.43;0.43;;;22.00;64.20;;;;;;6294900;28;20096;-66
2023/07/30 07:28:38;;;;;;;0.60;0.60;;;22.00;64.20;;;;;;6295096;28;20477;-66
2023/07/30 07:31:39;;;;;;;0.40;0.38;;;22.00;64.30;;;;;;6293576;28;20664;-64
2023/07/30 07:34:39;;;;;;;0.43;0.40;;;22.00;64.30;;;;;;6294460;28;20505;-67
2023/07/30 07:37:40;;;;;;;0.50;0.50;;;22.00;64.30;;;;;;6293579;28;20070;-67
2023/07/30 07:40:41;;;;;;;0.50;0.45;;;22.00;64.20;;;;;;6293556;28;20032;-67
2023/07/30 07:43:42;;;;;;;0.60;0.50;;;21.90;64.10;;;;;;6294298;28;20664;-66
2023/07/30 07:46:42;;;;;;;0.50;0.40;;;21.90;64.10;;;;;;6293439;28;20028;-65
2023/07/30 07:49:43;;;;;;;0.60;0.57;;;21.90;64.10;;;;;;6294697;28;20035;-66
2023/07/30 07:52:44;;;;;;;0.40;0.40;;;22.00;65.20;;;;;;6294152;28;20371;-66
2023/07/30 07:55:44;;;;;;;0.75;0.50;;;21.90;64.20;;;;;;6294230;28;20069;-67
2023/07/30 07:58:45;;;;;;;0.60;0.55;;;21.90;64.20;;;;;;6293085;28;20031;-66
2023/07/30 08:01:46;;;;;;;0.60;0.50;;;22.00;64.30;;;;;;6294066;28;20562;-67
2023/07/30 08:04:46;;;;;;;0.95;0.52;;;21.90;64.20;;;;;;6293927;28;20017;-66
2023/07/30 08:07:47;;;;;;;0.35;0.30;;;21.90;64.20;;;;;;6293999;28;20060;-64
2023/07/30 08:10:48;;;;;;;0.35;0.32;;;21.90;64.20;;;;;;6292855;28;20021;-67
2023/07/30 08:13:49;;;;;;;0.80;0.60;;;22.00;64.20;;;;;;6293768;28;20040;-65
2023/07/30 08:16:49;;;;;;;0.60;0.50;;;21.90;64.20;;;;;;6292610;28;20094;-67
2023/07/30 08:19:50;;;;;;;0.50;0.50;;;21.90;64.20;;;;;;6293991;28;20033;-67
2023/07/30 08:22:51;;;;;;;0.43;0.40;;;21.90;64.20;;;;;;6293207;28;20393;-67
2023/07/30 08:25:51;;;;;;;0.50;0.50;;;22.00;64.30;;;;;;6293645;28;20058;-67
2023/07/30 08:28:52;;;;;;;0.38;0.38;;;21.90;64.20;;;;;;6293224;28;20414;-66
2023/07/30 08:31:53;;;;;;;0.40;0.40;;;22.00;64.20;;;;;;6290367;28;20432;-64
2023/07/30 08:34:53;;;;;;;0.82;0.50;;;22.00;64.20;;;;;;6291782;28;20056;-64
2023/07/30 08:37:54;;;;;;;0.57;0.50;;;21.90;64.20;;;;;;6293088;28;20694;-67
2023/07/30 08:40:55;;;;;;;0.40;0.40;;;21.90;64.20;;;;;;6274112;28;20028;-66
2023/07/30 08:43:55;;;;;;;0.30;0.30;;;21.90;64.20;;;;;;6290581;28;20027;-66
2023/07/30 08:46:56;;;;;;;0.40;0.40;;;21.90;64.20;;;;;;6290840;28;20432;-65
2023/07/30 08:49:57;;;;;;;0.30;0.30;;;22.00;64.30;;;;;;6289263;28;20036;-65
2023/07/30 08:52:59;;;;;;;0.30;0.30;;;21.90;64.10;;;;;;6288573;28;20032;-66
2023/07/30 08:56:01;;;;;;;0.40;0.40;;;21.90;64.20;;;;;;6282607;28;20119;-66
2023/07/30 08:59:03;;;;;;;0.50;0.50;;;21.90;64.20;;;;;;6287430;28;20036;-66
2023/07/30 09:02:10;;;;;;;0.63;0.60;;;21.90;64.20;;;;;;6289926;28;20031;-63
2023/07/30 09:05:11;;;;;;;0.47;0.47;;;21.90;64.20;;;;;;6292105;28;20020;-64
2023/07/30 09:08:12;;;;;;;0.47;0.40;;;21.90;64.10;;;;;;6292275;28;20096;-64
2023/07/30 09:11:13;;;;;;;0.40;0.40;;;21.90;64.20;;;;;;6291658;28;20020;-63
2023/07/30 09:14:13;;;;;;;0.30;0.30;;;22.00;65.20;;;;;;6292273;28;20073;-64
2023/07/30 09:17:18;;;;;;;0.40;0.40;;;22.00;64.30;;;;;;6292051;28;20090;-63
2023/07/30 09:20:19;;;;;;;0.47;0.40;;;21.90;64.20;;;;;;6292300;28;20026;-62
2023/07/30 09:23:20;;;;;;;1.40;0.40;;;22.00;64.30;;;;;;6292203;28;20028;-64
2023/07/30 09:26:21;;;;;;;0.35;0.35;;;21.90;64.20;;;;;;6292260;28;20028;-64
2023/07/30 09:29:22;;;;;;;0.40;0.40;;;21.90;64.10;;;;;;6292046;28;20021;-63
2023/07/30 09:32:30;;;;;;;0.40;0.40;;;21.90;64.20;;;;;;6292340;28;20112;-64
2023/07/30 09:35:33;;;;;;;0.50;0.50;;;21.90;64.20;;;;;;6292309;28;20043;-63
2023/07/30 09:38:43;;;;;;;0.50;0.45;;;21.90;64.20;;;;;;6291686;28;20021;-66
2023/07/30 09:41:45;;;;;;;0.40;0.40;;;21.90;64.20;;;;;;6290309;28;20028;-66
2023/07/30 09:44:47;;;;;;;0.50;0.50;;;21.90;64.20;;;;;;6290566;28;20503;-69
2023/07/30 09:47:49;;;;;;;0.45;0.45;;;21.90;64.20;;;;;;6290245;28;20052;-68
2023/07/30 09:50:50;;;;;;;0.93;0.52;;;21.90;64.20;;;;;;6285944;28;20028;-67
2023/07/30 09:53:52;;;;;;;0.30;0.30;;;22.00;65.20;;;;;;6288894;28;20396;-68
2023/07/30 09:56:52;;;;;;;0.43;0.40;;;21.90;64.20;;;;;;6278832;28;20579;-68
2023/07/30 09:59:53;;;;;;;0.30;0.30;;;21.90;64.20;;;;;;6273153;28;20029;-69
2023/07/30 10:02:58;;;;;;;0.32;0.32;;;21.90;64.20;;;;;;6289852;28;20028;-68
2023/07/30 10:06:03;;;;;;;1.00;0.45;;;21.90;64.20;;;;;;6295207;28;20056;-69
2023/07/30 10:09:04;;;;;;;;;;;21.90;64.20;;;;;;6295191;28;20039;-69
2023/07/30 10:12:06;;;;;;;0.93;0.47;;;22.00;64.30;;;;;;6294824;28;19914;-69
2023/07/30 10:15:08;;;;;;;0.30;0.30;;;21.90;64.10;;;;;;6284359;28;20896;-69
2023/07/30 10:18:08;;;;;;;0.40;0.40;;;21.90;64.20;;;;;;6292933;28;20025;-69
2023/07/30 10:21:14;;;;;;;0.50;0.43;;;21.90;64.20;;;;;;6284688;28;20119;-68
2023/07/30 10:24:15;;;;;;;0.30;0.30;;;21.90;64.20;;;;;;6291878;28;20092;-69
2023/07/30 10:27:24;;;;;;;1.27;0.50;;;21.90;64.20;;;;;;6294354;28;20391;-69
2023/07/30 10:30:31;;;;;;;0.32;0.32;;;21.90;64.30;;;;;;6290457;28;20081;-69
2023/07/30 10:33:51;;;;;;;0.63;0.50;;;21.90;64.20;;;;;;6283581;28;20048;-69
2023/07/30 10:36:55;;;;;;;0.50;0.50;;;21.90;64.20;;;;;;6290356;28;20025;-69
2023/07/30 10:39:56;;;;;;;0.50;0.50;;;21.90;64.20;;;;;;6282600;28;20058;-69
2023/07/30 10:42:57;;;;;;;1.33;0.52;;;22.00;64.30;;;;;;6293751;28;20490;-69
2023/07/30 10:45:57;;;;;;;0.52;0.47;;;21.90;64.20;;;;;;6283547;28;20020;-69
2023/07/30 10:48:58;;;;;;;0.65;0.52;;;21.90;64.20;;;;;;6292554;28;20025;-69
2023/07/30 10:51:59;;;;;;;0.60;0.50;;;21.90;64.20;;;;;;6294608;28;20012;-69
2023/07/30 10:55:00;;;;;;;1.35;0.60;;;21.90;64.20;;;;;;6292918;28;20488;-68
2023/07/30 10:58:01;;;;;;;0.70;0.50;;;21.90;64.20;;;;;;6293558;28;20020;-69
2023/07/30 11:01:03;;;;;;;0.77;0.50;;;22.00;64.30;;;;;;6294103;28;20451;-67
2023/07/30 11:04:09;;;;;;;0.68;0.50;;;21.90;64.20;;;;;;6293323;28;20096;-68
2023/07/30 11:07:17;;;;;;;0.40;0.40;;;21.90;64.20;;;;;;6293710;28;20070;-69
2023/07/30 11:10:18;;;;;;;0.50;0.45;;;22.00;64.30;;;;;;6292803;28;20020;-69
2023/07/30 11:13:19;;;;;;;0.73;0.50;;;22.00;64.30;;;;;;6293014;28;20489;-68
2023/07/30 11:16:19;;;;;;;0.70;0.50;;;21.90;64.20;;;;;;6293513;28;20418;-69
2023/07/30 11:19:20;;;;;;;0.60;0.50;;;21.90;64.20;;;;;;6291651;28;20054;-69
2023/07/30 11:22:31;;;;;;;0.40;0.40;;;21.90;64.20;;;;;;6292219;28;20028;-69
2023/07/30 11:25:31;;;;;;;0.40;0.40;;;21.90;64.20;;;;;;6287800;28;20516;-68
2023/07/30 11:28:32;;;;;;;0.40;0.40;;;21.90;64.20;;;;;;6292732;28;20024;-69
2023/07/30 11:31:33;;;;;;;1.63;0.57;;;21.90;64.20;;;;;;6293122;28;20059;-68
2023/07/30 11:34:38;;;;;;;0.63;0.55;;;21.90;64.20;;;;;;6290533;28;20037;-69
2023/07/30 11:37:42;;;;;;;0.40;0.40;;;22.00;64.30;;;;;;6292512;28;20055;-68
2023/07/30 11:40:43;;;;;;;0.82;0.63;;;21.90;64.20;;;;;;6291012;28;20571;-69
2023/07/30 11:43:44;;;;;;;0.50;0.50;;;21.90;64.20;;;;;;6292622;28;20024;-69
2023/07/30 11:46:54;;;;;;;0.45;0.40;;;22.00;64.30;;;;;;6291609;28;20051;-69
2023/07/30 11:49:57;;;;;;;0.40;0.40;;;21.90;64.20;;;;;;6290759;28;20029;-68
2023/07/30 11:52:57;;;;;;;0.95;0.50;;;21.90;64.20;;;;;;6292735;28;20054;-69
2023/07/30 11:55:58;;;;;;;0.50;0.50;;;21.90;65.10;;;;;;6292616;28;20111;-69
2023/07/30 11:59:04;;;;;;;0.80;0.60;;;21.90;64.20;;;;;;6292117;28;20036;-69
2023/07/30 12:02:05;;;;;;;0.63;0.50;;;21.90;64.20;;;;;;6291279;28;20477;-69
2023/07/30 12:05:09;;;;;;;0.70;0.50;;;21.90;64.20;;;;;;6290833;28;20020;-68
2023/07/30 12:08:16;;;;;;;0.50;0.50;;;21.90;64.20;;;;;;6290569;28;20031;-69
2023/07/30 12:11:20;;;;;;;0.40;0.40;;;21.90;64.20;;;;;;6290770;28;20020;-68
2023/07/30 12:14:50;;;;;;;0.60;0.60;;;21.90;64.20;;;;;;6291566;28;20021;-68
2023/07/30 12:17:51;;;;;;;0.40;0.40;;;21.90;64.20;;;;;;6288794;28;20560;-68
2023/07/30 12:20:53;;;;;;;0.40;0.40;;;21.90;64.20;;;;;;6290430;28;20030;-69
2023/07/30 12:23:54;;;;;;;0.90;0.40;;;21.90;64.20;;;;;;6291466;28;20477;-69
2023/07/30 12:26:55;;;;;;;0.50;0.50;;;21.90;64.20;;;;;;6291420;28;20036;-69
2023/07/30 12:29:56;;;;;;;0.75;0.50;;;22.00;64.30;;;;;;6291162;28;20481;-69
2023/07/30 12:32:57;;;;;;;0.65;0.40;;;21.90;64.20;;;;;;6290100;28;20040;-69
2023/07/30 12:35:57;;;;;;;0.57;0.50;;;21.90;64.20;;;;;;6281870;28;20029;-68
2023/07/30 12:38:58;;;;;;;0.90;0.57;;;21.90;64.20;;;;;;6289648;28;20028;-69
2023/07/30 12:41:59;;;;;;;0.40;0.40;;;21.90;64.20;;;;;;6290913;28;20029;-69
2023/07/30 12:44:59;;;;;;;0.40;0.40;;;21.90;64.20;;;;;;6289571;28;20044;-69
2023/07/30 12:48:01;;;;;;;0.30;0.30;;;21.90;64.20;;;;;;6291003;28;20445;-69
2023/07/30 12:51:02;;;;;;;0.93;0.50;;;21.90;64.20;;;;;;6289955;28;20031;-69
2023/07/30 12:54:03;;;;;;;0.40;0.40;;;21.90;64.20;;;;;;6290264;28;20035;-68
2023/07/30 12:57:04;;;;;;;0.60;0.50;;;21.90;65.10;;;;;;6290966;28;20029;-69
2023/07/30 13:00:05;;;;;;;0.47;0.32;;;21.90;64.20;;;;;;6289018;28;20051;-66
2023/07/30 13:03:06;;;;;;;0.40;0.40;;;21.90;64.30;;;;;;6290822;28;20034;-69
2023/07/30 13:06:06;;;;;;;0.43;0.43;;;21.90;64.20;;;;;;6290714;28;20094;-69
2023/07/30 13:09:07;;;;;;;0.50;0.50;;;21.90;64.20;;;;;;6290698;28;20548;-69
2023/07/30 13:12:08;;;;;;;0.35;0.35;;;21.90;64.20;;;;;;6280187;28;20508;-68
2023/07/30 13:15:10;;;;;;;0.80;0.40;;;21.90;64.20;;;;;;6291213;28;20032;-69
2023/07/30 13:18:10;;;;;;;0.32;0.30;;;21.90;64.30;;;;;;6290113;28;20021;-69
2023/07/30 13:21:11;;;;;;;0.40;0.40;;;21.90;64.20;;;;;;6290856;28;20031;-68
2023/07/30 13:24:12;;;;;;;0.50;0.50;;;21.90;64.20;;;;;;6288172;28;20039;-69
2023/07/30 13:27:12;;;;;;;0.50;0.50;;;21.90;64.30;;;;;;6289064;28;20024;-69
2023/07/30 13:30:13;;;;;;;1.00;0.60;;;21.90;64.20;;;;;;6290467;28;20024;-69
2023/07/30 13:33:14;;;;;;;0.40;0.40;;;21.90;64.20;;;;;;6290557;28;20454;-69
2023/07/30 13:36:14;;;;;;;0.70;0.40;;;21.90;64.20;;;;;;6291683;28;20090;-69
2023/07/30 13:39:15;;;;;;;0.65;0.55;;;21.90;64.20;;;;;;6294723;28;20489;-69
2023/07/30 13:42:16;;;;;;;0.63;0.43;;;21.90;64.20;;;;;;6295139;28;20077;-68
2023/07/30 13:45:16;;;;;;;0.30;0.30;;;21.90;64.20;;;;;;6283298;28;20036;-69
2023/07/30 13:48:17;;;;;;;0.40;0.40;;;21.90;64.20;;;;;;6294835;28;20025;-69
2023/07/30 13:51:18;;;;;;;0.60;0.60;;;21.90;64.20;;;;;;6284976;28;20028;-68
2023/07/30 13:54:18;;;;;;;0.47;0.47;;;21.90;64.20;;;;;;6294114;28;20031;-69
2023/07/30 13:57:24;;;;;;;0.40;0.40;;;21.90;64.20;;;;;;6286295;28;20704;-69
2023/07/30 14:00:25;;;;;;;0.40;0.40;;;21.90;65.10;;;;;;6291756;28;20039;-69
2023/07/30 14:03:25;;;;;;;0.60;0.50;;;21.90;64.20;;;;;;6294746;28;20064;-66
2023/07/30 14:06:27;;;;;;;0.50;0.50;;;21.90;64.20;;;;;;6292740;28;20021;-66
2023/07/30 14:09:33;;;;;;;0.63;0.63;;;21.90;64.20;;;;;;6284753;28;20039;-67
2023/07/30 14:12:33;;;;;;;0.30;0.30;;;21.90;64.20;;;;;;6282937;28;22346;-67
2023/07/30 14:15:34;;;;;;;1.00;0.40;;;21.90;64.20;;;;;;6290129;28;20111;-67
2023/07/30 14:18:35;;;;;;;0.63;0.55;;;22.00;64.30;;;;;;6291307;28;20694;-67
2023/07/30 14:21:35;;;;;;;0.30;0.30;;;21.90;64.20;;;;;;6292707;28;20519;-66
2023/07/30 14:24:37;;;;;;;0.32;0.32;;;21.90;64.20;;;;;;6292721;28;20025;-68
2023/07/30 14:27:38;;;;;;;0.73;0.40;;;21.90;64.20;;;;;;6291973;28;20028;-67
2023/07/30 14:30:43;;;;;;;0.40;0.40;;;21.90;64.20;;;;;;6291663;28;20021;-67
2023/07/30 14:33:44;;;;;;;0.40;0.40;;;21.90;64.20;;;;;;6291445;28;20029;-68
2023/07/30 14:36:45;;;;;;;0.40;0.40;;;21.90;64.30;;;;;;6290840;28;20170;-68
2023/07/30 14:39:45;;;;;;;0.38;0.30;;;21.90;64.20;;;;;;6290662;28;20519;-67
2023/07/30 14:42:46;;;;;;;0.73;0.40;;;21.90;64.20;;;;;;6292408;28;20032;-67
2023/07/30 14:45:49;;;;;;;0.32;0.32;;;22.00;64.30;;;;;;6280916;28;20070;-68
2023/07/30 14:48:49;;;;;;;0.85;0.40;;;21.90;64.30;;;;;;6292634;28;20114;-68
2023/07/30 14:51:51;;;;;;;0.30;0.30;;;21.90;65.20;;;;;;6284060;28;20025;-67
2023/07/30 14:54:51;;;;;;;0.30;0.30;;;21.90;64.20;;;;;;6294037;28;20422;-68
2023/07/30 14:57:52;;;;;;;0.40;0.40;;;21.90;64.30;;;;;;6293805;28;20037;-68
2023/07/30 15:00:53;;;;;;;0.30;0.30;;;21.90;64.30;;;;;;6294073;28;20028;-68
2023/07/30 15:03:53;;;;;;;0.30;0.30;;;21.90;64.30;;;;;;6293511;28;20597;-68
2023/07/30 15:06:54;;;;;;;0.60;0.50;;;21.90;64.30;;;;;;6294021;28;20427;-68
2023/07/30 15:09:55;;;;;;;0.57;0.30;;;21.90;64.30;;;;;;6294031;28;20507;-68
2023/07/30 15:12:55;;;;;;;0.40;0.40;;;21.90;64.30;;;;;;6293780;28;20495;-68
2023/07/30 15:15:56;;;;;;;0.40;0.40;;;21.90;64.30;;;;;;6293363;28;20028;-68
2023/07/30 15:18:57;;;;;;;0.77;0.50;;;21.90;64.30;;;;;;6293397;28;20021;-66
2023/07/30 15:21:58;;;;;;;1.33;0.40;;;21.90;64.30;;;;;;6285701;28;20070;-68
2023/07/30 15:24:58;;;;;;;0.50;0.40;;;21.90;64.30;;;;;;6291740;28;20418;-68
2023/07/30 15:28:00;;;;;;;1.05;0.30;;;21.90;64.30;;;;;;6293014;28;20537;-68
2023/07/30 15:31:01;;;;;;;0.40;0.40;;;21.90;64.30;;;;;;6293212;28;20020;-68
2023/07/30 15:34:03;;;;;;;0.50;0.40;;;21.90;64.30;;;;;;6290206;28;20044;-68
2023/07/30 15:37:03;;;;;;;0.40;0.40;;;21.90;64.30;;;;;;6268634;28;20056;-67
2023/07/30 15:40:05;;;;;;;0.63;0.35;;;21.90;64.30;;;;;;6290509;28;20070;-65
2023/07/30 15:43:06;;;;;;;0.57;0.50;;;21.90;64.30;;;;;;6278720;28;20060;-68
2023/07/30 15:46:07;;;;;;;0.32;0.30;;;21.90;64.30;;;;;;6273491;28;20016;-67